Woodbridge, NJ

2:12 PM EDT on March 31, 2015 (GMT -0400)
Morristown Municipal | | Change Station
CLOSE
Current Station
Airport
Location: Morristown,
Elevation: 187 ft
Nearby Weather Stations

Elev 187 ft 40.80 °N, 74.42 °W | Updated 27 minutes ago

Overcast
Overcast
41 °F
Feels Like 38 °F
N
5
Wind Variable Wind from North

Today
High -- | Low -- °F
--% Chance of Precip.
Yesterday
High -- | Low -- °F
Precip. -- in
6:42 AM 7:20 PM
Waxing Gibbous, 88% visible
Pressure 29.79 in
Visibility 5.0 miles
Clouds Scattered Clouds 1500 ft
Overcast 5000 ft
Windchill 38 °F
Dew Point 34 °F
Humidity 76%
Rainfall 0.01 in
Snow Depth Not available.
UV 2 out of 12
Pollen 6.40 out of 12
Air Quality Not available.
Flu Activity Not available.
METAR KMMU 311745Z 01004KT 5SM -RA SCT015 OVC050 05/01 A2979

More Conditions Fewer Conditions

Pressure 29.79 in
Visibility 5.0 miles
Clouds Scattered Clouds 1500 ft
Overcast 5000 ft
Windchill 38 °F
Dew Point 34 °F
Humidity 76%
Rainfall 0.01 in
Snow Depth Not available.
UV 2 out of 12
Pollen 6.40 out of 12
Air Quality Not available.
Flu Activity Not available.
METAR KMMU 311745Z 01004KT 5SM -RA SCT015 OVC050 05/01 A2979

More Conditions Fewer Conditions

10-Day Weather Forecast

Almanac

Astronomy

Mar. 31, 2015 Rise Set
Actual Time
Civil Twilight
Nautical Twilight
Astronomical Twilight
Moon
Length of Visible Light
Length of Day
Tomorrow will be .
, % of the Moon is Illuminated

Today's Extremes

State Highs State Lows

Community

WunderPhotos

Upload Photos

1,809,786 photos uploaded!

WunderBlogs® & News

Nearby

Air Quality

  Air Quality AQ Index Pollutant
Not available.

Snow Depth

Station Depth Elevation

Earthquake Activity

City Distance Mag. Time & Date
Minimum magnitude displayed is 2.5.

Coastal Water Temperatures

Place Temperature

Stations

Nearby Weather Stations

Station Location Temp. Windchill Dew Point Humidity Wind Precip. Elev Updated Type